Time;durP1;ratioP1;P1;durP2;ratioP2;P2;SDS_P1;SDS_P2;PMS_P1;PMS_P2;Temp;Humidity;BMP_temperature;BMP_pressure;BME280_temperature;BME280_humidity;BME280_pressure;Samples;Min_cycle;Max_cycle;Signal;HPM_P1;HPM_P2
2021/06/22 00:00:24;;;;;;;7.60;6.90;;;;;;;19.28;84.62;95837.37;1662022;85;20962;-80
2021/06/22 00:02:52;;;;;;;8.30;6.62;;;;;;;19.26;84.43;95834.19;1674416;85;20944;-80
2021/06/22 00:05:19;;;;;;;11.25;6.80;;;;;;;19.23;84.77;95835.48;1665285;85;20961;-81
2021/06/22 00:07:50;;;;;;;10.78;7.17;;;;;;;19.18;84.72;95824.36;1647482;86;20993;-80
2021/06/22 00:10:17;;;;;;;8.40;7.47;;;;;;;19.17;85.00;95822.77;1674426;85;20951;-80
2021/06/22 00:12:43;;;;;;;7.58;6.87;;;;;;;19.14;85.12;95819.33;1674597;85;20990;-80
2021/06/22 00:15:11;;;;;;;12.05;7.25;;;;;;;19.12;85.20;95822.73;1674442;85;20971;-80
2021/06/22 00:17:38;;;;;;;8.25;6.85;;;;;;;19.10;85.24;95824.83;1674510;85;20944;-80
2021/06/22 00:20:05;;;;;;;10.08;7.35;;;;;;;19.09;85.31;95824.55;1674532;85;20920;-81
2021/06/22 00:22:31;;;;;;;10.00;7.10;;;;;;;19.08;85.43;95832.70;1673121;85;20969;-80
2021/06/22 00:24:57;;;;;;;11.05;7.00;;;;;;;19.05;86.17;95830.58;1674681;86;20928;-80
2021/06/22 00:27:23;;;;;;;9.33;7.97;;;;;;;19.02;86.29;95826.57;1673590;85;21033;-80
2021/06/22 00:29:50;;;;;;;8.55;6.95;;;;;;;18.99;86.20;95824.44;1674501;85;20940;-80
2021/06/22 00:32:18;;;;;;;11.38;7.62;;;;;;;19.00;86.54;95818.13;1694142;85;20986;-80
2021/06/22 00:34:48;;;;;;;10.78;6.62;;;;;;;19.03;86.22;95822.89;1692543;85;21005;-81
2021/06/22 00:37:15;;;;;;;11.57;7.17;;;;;;;19.04;86.06;95816.61;1673632;85;21237;-80
2021/06/22 00:39:41;;;;;;;10.65;7.95;;;;;;;19.11;85.84;95813.77;1674493;85;21256;-80
2021/06/22 00:42:08;;;;;;;11.40;7.83;;;;;;;19.22;85.98;95815.98;1674534;85;21029;-80
2021/06/22 00:44:47;;;;;;;10.23;6.97;;;;;;;19.28;85.65;95816.30;1674362;85;20990;-80
2021/06/22 00:47:16;;;;;;;8.95;6.62;;;;;;;19.33;85.80;95822.39;1674312;85;21241;-80
2021/06/22 00:49:42;;;;;;;10.63;7.47;;;;;;;19.39;85.47;95823.25;1646408;86;20965;-80
2021/06/22 00:52:08;;;;;;;12.05;7.80;;;;;;;19.35;85.30;95829.52;1666208;85;20980;-81
2021/06/22 00:54:37;;;;;;;8.13;6.95;;;;;;;19.29;85.08;95823.16;1672063;85;20928;-80
2021/06/22 00:57:08;;;;;;;8.73;6.62;;;;;;;19.31;85.26;95819.74;1658974;85;21004;-81
2021/06/22 00:59:34;;;;;;;12.23;7.85;;;;;;;19.31;85.03;95811.84;1674617;85;20927;-81
2021/06/22 01:02:02;;;;;;;8.20;6.85;;;;;;;19.34;84.84;95809.49;1673927;85;21058;-80
2021/06/22 01:04:28;;;;;;;9.25;6.72;;;;;;;19.37;84.70;95811.65;1673839;85;20951;-80
2021/06/22 01:06:56;;;;;;;9.55;7.60;;;;;;;19.40;84.58;95806.40;1674544;85;20908;-80
2021/06/22 01:09:22;;;;;;;8.08;7.37;;;;;;;19.40;84.58;95799.29;1674246;85;20958;-80
2021/06/22 01:11:47;;;;;;;9.43;7.78;;;;;;;19.38;84.65;95792.69;1674392;85;20965;-80
2021/06/22 01:14:13;;;;;;;8.85;8.03;;;;;;;19.33;84.73;95792.63;1672225;85;20990;-80
2021/06/22 01:16:39;;;;;;;8.48;7.60;;;;;;;19.34;84.69;95791.58;1657663;86;21080;-80
2021/06/22 01:19:08;;;;;;;11.18;7.37;;;;;;;19.32;84.74;95795.78;1674305;85;20943;-80
2021/06/22 01:21:33;;;;;;;11.80;7.20;;;;;;;19.32;84.68;95797.09;1655599;85;20948;-81
2021/06/22 01:24:13;;;;;;;8.40;7.30;;;;;;;19.39;84.58;95807.45;1673972;85;21305;-81
2021/06/22 01:26:46;;;;;;;9.15;7.22;;;;;;;19.42;84.29;95802.47;1670302;85;21092;-81
2021/06/22 01:29:12;;;;;;;10.15;7.22;;;;;;;19.41;84.23;95789.55;1601641;87;21008;-80
2021/06/22 01:31:38;;;;;;;9.88;7.17;;;;;;;19.34;83.98;95801.59;1648056;85;20935;-80
2021/06/22 01:34:04;;;;;;;9.28;6.83;;;;;;;19.33;84.09;95801.84;1615990;86;20969;-80
2021/06/22 01:36:31;;;;;;;9.30;7.08;;;;;;;19.29;83.91;95796.81;1625947;86;21028;-81
2021/06/22 01:38:57;;;;;;;8.40;7.12;;;;;;;19.28;84.01;95788.64;1646776;86;20950;-81
2021/06/22 01:41:23;;;;;;;8.83;6.75;;;;;;;19.22;83.77;95789.66;1644074;86;21231;-81
2021/06/22 01:43:49;;;;;;;7.35;6.65;;;;;;;19.22;83.70;95789.66;1629020;85;21081;-80
2021/06/22 01:46:15;;;;;;;9.25;7.15;;;;;;;19.20;83.83;95785.95;1646546;85;20954;-80
2021/06/22 01:48:41;;;;;;;7.75;6.72;;;;;;;19.16;83.89;95786.16;1632063;86;20951;-80
2021/06/22 01:51:06;;;;;;;7.62;6.60;;;;;;;19.14;83.87;95800.89;1632561;86;20987;-80
2021/06/22 01:53:32;;;;;;;12.85;7.12;;;;;;;19.15;83.90;95799.84;1615304;88;20997;-80
2021/06/22 01:55:59;;;;;;;8.85;6.72;;;;;;;19.11;83.91;95797.97;1614263;88;21015;-80
2021/06/22 01:58:25;;;;;;;9.13;6.55;;;;;;;19.05;83.93;95802.92;1595270;89;21042;-80
2021/06/22 02:00:55;;;;;;;7.60;6.50;;;;;;;18.97;83.96;95796.78;1631639;86;20962;-80
2021/06/22 02:03:21;;;;;;;7.62;6.80;;;;;;;18.88;84.09;95798.55;1640513;85;21053;-80
2021/06/22 02:05:48;;;;;;;8.55;7.70;;;;;;;18.81;84.26;95799.25;1636681;86;21303;-80
2021/06/22 02:08:15;;;;;;;10.43;7.37;;;;;;;18.78;84.43;95789.75;1641237;86;21006;-80
2021/06/22 02:10:41;;;;;;;10.23;7.60;;;;;;;18.76;84.59;95793.15;1617693;88;20944;-81
2021/06/22 02:13:06;;;;;;;7.83;7.08;;;;;;;18.73;84.65;95792.34;1614724;88;21027;-81
2021/06/22 02:15:32;;;;;;;8.10;7.35;;;;;;;18.70;84.94;95794.91;1597391;89;20998;-80
2021/06/22 02:17:58;;;;;;;9.98;7.37;;;;;;;18.66;84.94;95795.14;1613341;89;21248;-80
2021/06/22 02:20:24;;;;;;;10.98;6.95;;;;;;;18.64;85.06;95795.91;1603279;89;20951;-81
2021/06/22 02:22:49;;;;;;;8.40;7.60;;;;;;;18.60;85.29;95800.84;1606438;89;20955;-81
2021/06/22 02:25:16;;;;;;;11.33;7.15;;;;;;;18.57;85.29;95807.13;1610351;89;21256;-80
2021/06/22 02:27:42;;;;;;;9.85;6.90;;;;;;;18.54;85.75;95812.33;1620107;87;20990;-81
2021/06/22 02:30:12;;;;;;;7.33;6.53;;;;;;;18.51;85.84;95819.41;1623940;87;21415;-80
2021/06/22 02:32:38;;;;;;;9.08;6.90;;;;;;;18.48;85.99;95821.22;1649035;84;20920;-80
2021/06/22 02:35:06;;;;;;;6.92;6.30;;;;;;;18.46;86.23;95823.30;1656959;85;21266;-81
2021/06/22 02:37:31;;;;;;;7.60;6.42;;;;;;;18.44;86.48;95823.27;1657518;85;20927;-81
2021/06/22 02:39:57;;;;;;;12.82;7.12;;;;;;;18.41;86.70;95821.13;1653079;86;20967;-80
2021/06/22 02:42:23;;;;;;;10.18;6.78;;;;;;;18.38;86.86;95819.77;1664331;86;21386;-80
2021/06/22 02:44:48;;;;;;;11.00;6.72;;;;;;;18.38;86.93;95825.02;1645620;86;21021;-80
2021/06/22 02:47:14;;;;;;;8.13;7.33;;;;;;;18.38;87.01;95824.23;1656344;86;20924;-81
2021/06/22 02:49:40;;;;;;;10.82;7.78;;;;;;;18.39;86.87;95827.95;1664888;86;21214;-80
2021/06/22 02:52:08;;;;;;;11.70;7.50;;;;;;;18.43;86.70;95829.05;1664895;86;20897;-81
2021/06/22 02:54:37;;;;;;;12.60;6.75;;;;;;;18.49;86.93;95829.90;1664748;86;21261;-80
2021/06/22 02:57:01;;;;;;;9.05;7.03;;;;;;;18.51;86.93;95831.77;1633329;87;21068;-80
2021/06/22 02:59:27;;;;;;;7.80;6.55;;;;;;;18.50;87.00;95830.97;1633902;87;21004;-80
2021/06/22 03:01:52;;;;;;;9.75;7.35;;;;;;;18.52;87.18;95837.30;1669512;86;21236;-80
2021/06/22 03:04:18;;;;;;;10.48;7.25;;;;;;;18.53;86.93;95843.62;1648112;85;21005;-80
2021/06/22 03:06:44;;;;;;;9.53;7.70;;;;;;;18.62;87.04;95857.69;1630963;86;21002;-80
2021/06/22 03:09:10;;;;;;;8.00;7.10;;;;;;;18.67;87.03;95861.20;1669248;86;20968;-80
2021/06/22 03:11:35;;;;;;;10.70;7.28;;;;;;;18.72;87.03;95850.75;1678031;85;20952;-80
2021/06/22 03:14:01;;;;;;;12.20;7.87;;;;;;;18.77;86.89;95851.32;1645466;87;20971;-80
2021/06/22 03:16:27;;;;;;;13.25;8.25;;;;;;;18.81;86.96;95854.52;1675596;86;21103;-80
2021/06/22 03:18:53;;;;;;;11.03;7.90;;;;;;;18.84;86.95;95859.81;1654717;86;21003;-80
2021/06/22 03:21:19;;;;;;;8.58;7.30;;;;;;;18.86;86.96;95855.89;1648289;86;21348;-80
2021/06/22 03:23:45;;;;;;;12.60;7.00;;;;;;;18.89;86.96;95859.37;1669307;86;21008;-80
2021/06/22 03:26:12;;;;;;;9.58;6.67;;;;;;;18.92;86.92;95854.65;1650931;86;21000;-80
2021/06/22 03:28:38;;;;;;;9.20;6.58;;;;;;;18.99;87.09;95853.92;1666590;86;20975;-80
2021/06/22 03:31:04;;;;;;;10.10;6.97;;;;;;;19.02;86.85;95853.42;1672133;85;21272;-80
2021/06/22 03:33:30;;;;;;;7.15;6.47;;;;;;;19.03;86.79;95857.13;1672279;85;20948;-80
2021/06/22 03:35:56;;;;;;;6.83;6.22;;;;;;;19.08;87.00;95857.72;1677911;85;21294;-81
2021/06/22 03:38:22;;;;;;;6.83;5.45;;;;;;;19.05;86.75;95857.70;1672311;85;21028;-81
2021/06/22 03:40:47;;;;;;;7.40;5.15;;;;;;;19.06;86.76;95863.23;1678180;85;21016;-80
2021/06/22 03:43:13;;;;;;;9.35;6.22;;;;;;;19.03;86.59;95855.80;1655555;85;21043;-81
2021/06/22 03:45:39;;;;;;;12.40;4.95;;;;;;;19.02;86.52;95858.69;1671099;86;21288;-81
2021/06/22 03:48:07;;;;;;;8.05;5.65;;;;;;;19.03;86.34;95864.23;1678115;85;20916;-80
2021/06/22 03:50:33;;;;;;;6.00;4.83;;;;;;;19.04;86.27;95858.73;1624928;87;20962;-80
2021/06/22 03:52:59;;;;;;;10.75;4.97;;;;;;;19.03;86.02;95855.80;1649280;87;21032;-80
2021/06/22 03:55:29;;;;;;;8.93;4.50;;;;;;;19.04;85.99;95855.31;1678015;85;20948;-80
2021/06/22 03:58:00;;;;;;;5.67;4.80;;;;;;;19.01;85.86;95858.42;1677723;85;20936;-80
2021/06/22 04:00:26;;;;;;;6.17;4.75;;;;;;;18.97;85.73;95858.12;1678174;85;20975;-80
2021/06/22 04:02:52;;;;;;;6.67;4.50;;;;;;;18.94;85.52;95859.94;1677057;85;21118;-80
2021/06/22 04:05:18;;;;;;;8.55;4.67;;;;;;;18.94;85.49;95863.88;1662667;85;21316;-81
2021/06/22 04:07:43;;;;;;;8.75;4.35;;;;;;;18.89;85.32;95864.63;1659881;86;21058;-80
2021/06/22 04:10:11;;;;;;;7.78;4.35;;;;;;;18.85;85.19;95868.77;1650492;85;20959;-80
2021/06/22 04:12:37;;;;;;;8.08;4.17;;;;;;;18.81;85.29;95869.52;1678004;85;20999;-81
2021/06/22 04:15:04;;;;;;;12.63;3.80;;;;;;;18.75;85.29;95871.83;1631118;87;21268;-81
2021/06/22 04:17:30;;;;;;;6.15;3.95;;;;;;;18.67;85.40;95867.77;1675138;85;20983;-80
2021/06/22 04:19:55;;;;;;;11.03;4.85;;;;;;;18.61;85.46;95864.78;1672728;86;20918;-80
2021/06/22 04:22:21;;;;;;;6.25;4.42;;;;;;;18.56;85.61;95866.05;1654029;85;21023;-80
2021/06/22 04:24:47;;;;;;;6.47;4.47;;;;;;;18.53;85.75;95863.88;1672773;85;20924;-80
2021/06/22 04:27:13;;;;;;;10.93;4.80;;;;;;;18.51;85.96;95866.75;1673265;85;20981;-80
2021/06/22 04:29:39;;;;;;;8.35;5.08;;;;;;;18.50;86.15;95861.73;1673523;85;21332;-80
2021/06/22 04:32:06;;;;;;;8.05;4.72;;;;;;;18.49;86.12;95856.20;1674206;85;20983;-80
2021/06/22 04:34:31;;;;;;;8.05;4.80;;;;;;;18.52;86.27;95859.14;1673795;85;20902;-80
2021/06/22 04:36:57;;;;;;;7.65;5.60;;;;;;;18.53;86.36;95863.88;1672325;85;20925;-80
2021/06/22 04:39:23;;;;;;;8.00;5.42;;;;;;;18.55;86.40;95873.14;1674738;86;20924;-81
2021/06/22 04:41:49;;;;;;;6.75;4.80;;;;;;;18.58;86.38;95877.91;1670584;85;20966;-80
2021/06/22 04:44:15;;;;;;;6.08;4.75;;;;;;;18.63;86.33;95876.38;1657316;85;20994;-80
2021/06/22 04:46:40;;;;;;;11.28;4.80;;;;;;;18.70;86.29;95881.75;1674436;85;20958;-80
2021/06/22 04:49:06;;;;;;;9.20;4.25;;;;;;;18.75;86.53;95876.57;1674349;85;21012;-80
2021/06/22 04:51:32;;;;;;;4.97;4.50;;;;;;;18.78;86.42;95872.13;1674427;85;20932;-81
2021/06/22 04:53:57;;;;;;;10.40;4.62;;;;;;;18.80;86.30;95870.56;1674667;86;21289;-80
2021/06/22 04:56:24;;;;;;;9.58;4.97;;;;;;;18.80;86.30;95863.98;1655543;85;20899;-81
2021/06/22 04:58:55;;;;;;;11.83;4.78;;;;;;;18.84;86.26;95867.70;1674429;85;21346;-80
2021/06/22 05:01:21;;;;;;;6.75;4.70;;;;;;;18.90;86.28;95874.64;1650841;85;20964;-81
2021/06/22 05:03:47;;;;;;;7.92;4.62;;;;;;;18.96;86.32;95877.59;1660416;86;21384;-81
2021/06/22 05:06:12;;;;;;;8.75;4.65;;;;;;;19.00;86.33;95881.84;1666412;85;20938;-81
2021/06/22 05:08:39;;;;;;;5.70;4.83;;;;;;;19.02;86.49;95883.18;1655921;85;20993;-81
2021/06/22 05:11:05;;;;;;;6.72;4.55;;;;;;;19.04;86.83;95877.69;1674326;85;20957;-80
2021/06/22 05:13:32;;;;;;;6.75;4.47;;;;;;;19.05;86.67;95877.45;1674218;85;20904;-80
2021/06/22 05:15:58;;;;;;;10.10;5.25;;;;;;;19.06;86.76;95869.82;1674342;85;21281;-81
2021/06/22 05:18:24;;;;;;;10.43;5.35;;;;;;;19.09;86.80;95871.95;1674563;85;21007;-81
2021/06/22 05:20:50;;;;;;;7.22;4.70;;;;;;;19.14;86.92;95871.20;1650606;85;20950;-80
2021/06/22 05:23:16;;;;;;;5.75;4.62;;;;;;;19.19;86.89;95875.98;1659948;85;20932;-80
2021/06/22 05:25:42;;;;;;;5.95;4.55;;;;;;;19.25;86.79;95882.12;1655180;85;20920;-80
2021/06/22 05:28:09;;;;;;;8.30;4.85;;;;;;;19.31;86.79;95879.80;1653925;86;21019;-81
2021/06/22 05:30:35;;;;;;;14.35;5.85;;;;;;;19.38;86.92;95880.94;1671963;86;20976;-80
2021/06/22 05:33:01;;;;;;;6.62;4.50;;;;;;;19.45;87.17;95875.73;1672087;86;20932;-81
2021/06/22 05:35:27;;;;;;;5.60;5.10;;;;;;;19.50;87.20;95886.30;1672615;86;20937;-81
2021/06/22 05:37:52;;;;;;;7.03;5.17;;;;;;;19.55;87.40;95885.61;1671253;85;20958;-80
2021/06/22 05:40:18;;;;;;;7.62;4.72;;;;;;;19.61;87.59;95879.33;1672587;85;20976;-80
2021/06/22 05:42:44;;;;;;;8.28;5.08;;;;;;;19.65;87.73;95882.25;1672562;86;21022;-80
2021/06/22 05:45:10;;;;;;;5.95;4.95;;;;;;;19.68;87.79;95878.58;1672673;86;20979;-81
2021/06/22 05:47:36;;;;;;;5.80;5.30;;;;;;;19.74;87.80;95883.39;1665650;85;20973;-80
2021/06/22 05:50:03;;;;;;;9.40;5.70;;;;;;;19.77;87.87;95881.05;1657426;86;20981;-80
2021/06/22 05:52:29;;;;;;;9.38;5.15;;;;;;;19.84;87.92;95882.66;1672343;85;20967;-80
2021/06/22 05:54:54;;;;;;;5.60;5.10;;;;;;;19.92;88.00;95886.17;1672680;85;21236;-80
2021/06/22 05:57:20;;;;;;;7.90;5.53;;;;;;;20.03;88.09;95880.73;1672501;85;20932;-80
2021/06/22 05:59:46;;;;;;;9.03;4.65;;;;;;;20.11;88.12;95885.25;1671372;85;20928;-80
2021/06/22 06:02:12;;;;;;;8.00;5.25;;;;;;;20.17;88.25;95887.65;1672338;86;20994;-80
2021/06/22 06:04:38;;;;;;;7.55;5.80;;;;;;;20.24;88.07;95893.52;1656591;86;21245;-80
2021/06/22 06:07:04;;;;;;;8.43;6.12;;;;;;;20.34;88.33;95897.55;1672546;86;20901;-81
2021/06/22 06:09:29;;;;;;;6.25;5.70;;;;;;;20.49;88.20;95894.73;1672580;85;21006;-81
2021/06/22 06:11:55;;;;;;;8.25;6.87;;;;;;;20.60;88.15;95891.11;1672479;85;20988;-81
2021/06/22 06:14:21;;;;;;;7.20;6.45;;;;;;;20.73;87.98;95899.89;1659744;85;20945;-81
2021/06/22 06:16:47;;;;;;;7.83;7.03;;;;;;;20.88;88.23;95902.59;1672247;86;20926;-81
2021/06/22 06:19:13;;;;;;;7.85;6.85;;;;;;;21.04;88.52;95902.66;1672815;85;20942;-81
2021/06/22 06:21:39;;;;;;;15.50;12.37;;;;;;;21.20;88.35;95905.61;1672556;85;20944;-81
2021/06/22 06:24:08;;;;;;;12.23;11.12;;;;;;;21.38;87.70;95910.97;1672646;86;21034;-80
2021/06/22 06:26:44;;;;;;;11.43;9.50;;;;;;;21.62;88.15;95915.23;1678132;85;21001;-81
2021/06/22 06:29:15;;;;;;;13.32;11.97;;;;;;;21.83;88.15;95915.00;1661960;86;21069;-81
2021/06/22 06:31:32;;;;;;;16.52;12.90;;;;;;;22.02;87.11;95919.77;1661670;86;20924;-81
2021/06/22 06:33:58;;;;;;;13.62;12.47;;;;;;;22.29;85.90;95927.44;1645897;86;21237;-80
2021/06/22 06:36:24;;;;;;;10.15;9.10;;;;;;;22.54;86.23;95935.34;1640203;86;20970;-81
2021/06/22 06:38:50;;;;;;;13.65;12.23;;;;;;;22.73;86.25;95936.36;1649402;86;21335;-80
2021/06/22 06:41:16;;;;;;;15.28;12.43;;;;;;;22.94;85.08;95941.11;1663197;86;20936;-81
2021/06/22 06:43:41;;;;;;;13.95;12.65;;;;;;;23.06;84.56;95940.25;1663468;86;21034;-81
2021/06/22 06:46:07;;;;;;;16.55;12.80;;;;;;;23.18;83.87;95945.24;1663368;86;20980;-81
2021/06/22 06:48:33;;;;;;;11.40;10.20;;;;;;;23.31;84.42;95946.52;1651154;86;20885;-81
2021/06/22 06:50:59;;;;;;;13.00;11.63;;;;;;;23.44;84.29;95955.20;1637834;86;20997;-81
2021/06/22 06:53:25;;;;;;;12.73;11.53;;;;;;;23.53;84.08;95956.73;1648713;86;20998;-81
2021/06/22 06:55:51;;;;;;;11.75;9.63;;;;;;;23.58;83.74;95962.82;1647095;86;21297;-81
2021/06/22 06:58:16;;;;;;;12.07;11.00;;;;;;;23.63;82.19;95971.30;1661508;86;21319;-81
2021/06/22 07:00:42;;;;;;;12.13;10.90;;;;;;;23.49;83.03;95979.03;1663513;86;20948;-80
2021/06/22 07:03:08;;;;;;;11.10;10.00;;;;;;;23.49;83.03;95979.03;1663498;86;21042;-81
2021/06/22 07:05:34;;;;;;;11.57;10.65;;;;;;;23.41;83.07;95988.08;1663523;86;20916;-80
2021/06/22 07:08:00;;;;;;;11.10;10.10;;;;;;;23.39;82.75;96000.81;1663595;86;20952;-81
2021/06/22 07:10:27;;;;;;;12.68;10.32;;;;;;;23.40;83.46;96016.98;1663397;86;20936;-81
2021/06/22 07:12:56;;;;;;;14.63;11.00;;;;;;;23.39;83.20;96048.00;1645757;86;21250;-81
2021/06/22 07:15:21;;;;;;;9.30;8.40;;;;;;;23.29;82.78;96092.59;1663645;86;21043;-81
2021/06/22 07:17:48;;;;;;;10.48;9.38;;;;;;;23.10;80.25;96092.87;1668502;85;21235;-81
2021/06/22 07:20:15;;;;;;;13.13;11.35;;;;;;;22.81;79.74;96099.78;1668421;86;20928;-80
2021/06/22 07:22:41;;;;;;;17.15;12.35;;;;;;;22.57;80.65;96107.44;1660996;86;21028;-80
2021/06/22 07:25:08;;;;;;;13.53;10.05;;;;;;;22.38;81.33;96115.10;1660562;86;20924;-79
2021/06/22 07:27:34;;;;;;;8.95;8.08;;;;;;;22.23;81.09;96137.56;1659171;85;20968;-79
2021/06/22 07:30:00;;;;;;;8.08;7.28;;;;;;;21.99;80.31;96127.43;1655177;87;20959;-79
2021/06/22 07:32:26;;;;;;;8.13;6.87;;;;;;;21.81;80.44;96132.66;1636804;87;21006;-80
2021/06/22 07:34:52;;;;;;;11.38;7.78;;;;;;;21.72;80.66;96138.69;1663183;86;20989;-79
2021/06/22 07:37:18;;;;;;;8.88;7.53;;;;;;;21.63;80.94;96137.05;1662832;86;21017;-80
2021/06/22 07:39:44;;;;;;;8.25;6.72;;;;;;;21.50;81.22;96144.94;1662879;86;21223;-79
2021/06/22 07:42:10;;;;;;;9.78;7.67;;;;;;;21.41;81.67;96135.09;1663064;86;20920;-79
2021/06/22 07:44:35;;;;;;;9.63;6.65;;;;;;;21.38;81.75;96144.33;1634905;87;20970;-79
2021/06/22 07:47:01;;;;;;;11.38;6.60;;;;;;;21.33;81.95;96141.67;1662870;86;20964;-79
2021/06/22 07:49:27;;;;;;;8.93;7.65;;;;;;;21.26;81.61;96138.44;1655258;87;21338;-79
2021/06/22 07:51:53;;;;;;;9.03;6.50;;;;;;;21.18;82.15;96123.84;1641399;86;20987;-79
2021/06/22 07:54:18;;;;;;;7.15;6.45;;;;;;;21.14;81.86;96136.47;1644958;86;21318;-79
2021/06/22 07:56:44;;;;;;;7.83;5.95;;;;;;;21.11;82.44;96134.34;1659309;86;20976;-79
2021/06/22 07:59:10;;;;;;;8.05;6.30;;;;;;;21.10;82.08;96130.91;1662900;86;21028;-79
2021/06/22 08:01:36;;;;;;;9.03;7.03;;;;;;;21.02;82.40;96127.42;1662970;86;21247;-79
2021/06/22 08:04:01;;;;;;;9.50;6.45;;;;;;;21.00;82.69;96132.70;1634837;88;21045;-79
2021/06/22 08:06:27;;;;;;;9.63;6.78;;;;;;;20.99;83.27;96122.66;1646713;86;21032;-80
2021/06/22 08:08:53;;;;;;;7.65;6.47;;;;;;;20.99;83.27;96122.66;1651820;87;21015;-80
2021/06/22 08:11:18;;;;;;;6.92;5.78;;;;;;;20.92;83.18;96119.42;1655312;86;21322;-79
2021/06/22 08:13:44;;;;;;;7.83;6.20;;;;;;;20.94;83.35;96123.39;1655193;86;20981;-80
2021/06/22 08:16:10;;;;;;;8.68;6.05;;;;;;;20.92;83.23;96126.81;1655063;86;20943;-80
2021/06/22 08:18:36;;;;;;;7.53;5.78;;;;;;;20.86;83.25;96125.20;1655204;86;20960;-79
2021/06/22 08:21:03;;;;;;;10.32;6.03;;;;;;;20.81;83.28;96116.42;1662940;86;20929;-79
2021/06/22 08:23:28;;;;;;;5.75;5.08;;;;;;;20.74;83.29;96103.44;1662917;86;21280;-80
2021/06/22 08:25:55;;;;;;;6.35;5.35;;;;;;;20.68;83.47;96094.70;1655235;86;21258;-79
2021/06/22 08:28:22;;;;;;;9.53;5.28;;;;;;;20.63;83.68;96078.00;1646248;85;21008;-80
2021/06/22 08:30:49;;;;;;;7.65;5.00;;;;;;;20.55;83.74;96054.73;1684604;84;21301;-79
2021/06/22 08:33:15;;;;;;;8.83;4.53;;;;;;;20.47;83.77;96034.86;1658466;85;20952;-79
2021/06/22 08:35:41;;;;;;;6.33;4.60;;;;;;;20.44;83.85;96029.30;1685684;85;20932;-79
2021/06/22 08:38:09;;;;;;;10.55;4.40;;;;;;;20.46;83.82;96063.61;1685966;85;21031;-80
2021/06/22 08:40:39;;;;;;;7.70;5.10;;;;;;;20.53;83.96;96092.45;1675711;85;20947;-79
2021/06/22 08:43:07;;;;;;;8.18;4.03;;;;;;;20.56;83.91;96105.14;1678561;85;20940;-80
2021/06/22 08:45:33;;;;;;;5.60;3.98;;;;;;;20.48;83.79;96079.99;1667036;85;21305;-80
2021/06/22 08:48:03;;;;;;;7.35;3.92;;;;;;;20.37;83.93;96059.83;1686558;85;20916;-80
2021/06/22 08:50:29;;;;;;;7.03;3.90;;;;;;;20.27;83.79;96047.86;1686881;85;20944;-79
2021/06/22 08:52:55;;;;;;;9.33;4.40;;;;;;;20.27;84.05;96061.84;1676003;85;20925;-79
2021/06/22 08:55:30;;;;;;;9.08;4.58;;;;;;;20.34;84.39;96080.12;1680194;85;21237;-80
2021/06/22 08:58:03;;;;;;;15.13;5.33;;;;;;;20.41;84.43;96059.63;1676957;85;21230;-80
2021/06/22 09:00:31;;;;;;;9.00;4.90;;;;;;;20.48;84.24;96060.20;1667660;85;21260;-80
2021/06/22 09:03:03;;;;;;;5.25;4.22;;;;;;;20.56;83.70;96084.83;1685397;85;20964;-79
2021/06/22 09:05:29;;;;;;;7.03;4.65;;;;;;;20.63;83.34;96090.67;1684105;85;20965;-80
2021/06/22 09:07:55;;;;;;;6.60;4.90;;;;;;;20.70;83.23;96075.97;1679923;85;20968;-79
2021/06/22 09:10:30;;;;;;;6.78;4.72;;;;;;;20.80;83.87;96076.02;1686181;85;21027;-79
2021/06/22 09:12:59;;;;;;;6.20;5.10;;;;;;;20.89;83.86;96075.03;1685813;85;20932;-80
2021/06/22 09:15:29;;;;;;;6.95;5.65;;;;;;;20.94;83.75;96050.77;1685724;84;21244;-80
2021/06/22 09:17:57;;;;;;;7.83;5.33;;;;;;;20.97;83.48;96033.61;1686203;85;20944;-79
2021/06/22 09:20:39;;;;;;;8.35;5.92;;;;;;;21.03;82.55;96018.61;1686373;84;20936;-79
2021/06/22 09:23:17;;;;;;;7.45;5.75;;;;;;;21.09;82.75;96007.80;1684222;85;20968;-79
2021/06/22 09:25:44;;;;;;;5.83;4.97;;;;;;;21.15;83.00;95986.15;1685922;84;20920;-80
2021/06/22 09:28:09;;;;;;;8.13;5.25;;;;;;;21.21;83.80;95980.64;1681734;85;21022;-80
2021/06/22 09:30:40;;;;;;;6.92;5.05;;;;;;;21.26;83.91;95968.80;1684378;85;20948;-80
2021/06/22 09:33:23;;;;;;;8.03;5.37;;;;;;;21.34;83.76;95973.33;1684582;85;20960;-79
2021/06/22 09:36:08;;;;;;;7.53;5.28;;;;;;;21.41;83.57;95971.23;1642394;87;20956;-80
2021/06/22 09:38:42;;;;;;;6.12;4.58;;;;;;;21.49;83.48;95977.34;1665990;85;21061;-79
2021/06/22 09:41:17;;;;;;;10.70;4.40;;;;;;;21.57;83.43;95980.26;1680090;84;20967;-80
2021/06/22 09:44:07;;;;;;;9.50;5.20;;;;;;;21.67;83.22;95977.39;1690642;85;20980;-80
2021/06/22 09:46:42;;;;;;;9.65;4.85;;;;;;;21.76;82.88;95978.45;1684140;85;20987;-80
2021/06/22 09:49:22;;;;;;;8.85;6.50;;;;;;;21.91;82.11;95977.68;1676323;85;21001;-80
2021/06/22 09:54:25;;;;;;;5.50;4.72;;;;;;;22.20;82.34;95984.61;1676493;85;20982;-80
2021/06/22 09:57:08;;;;;;;8.75;5.97;;;;;;;22.35;81.28;95978.00;1692191;84;20981;-80
2021/06/22 09:59:55;;;;;;;7.83;5.33;;;;;;;22.51;81.16;95981.43;1692042;84;21015;-79
2021/06/22 10:02:25;;;;;;;8.60;5.25;;;;;;;22.68;81.45;95990.67;1662976;86;20968;-80
2021/06/22 10:04:56;;;;;;;7.28;5.83;;;;;;;22.86;81.69;95985.36;1662874;86;20932;-79
2021/06/22 10:07:23;;;;;;;6.30;5.28;;;;;;;22.98;80.82;95982.42;1645157;86;20965;-80
2021/06/22 10:10:00;;;;;;;9.65;5.65;;;;;;;23.10;80.58;95977.59;1684071;85;21086;-80
2021/06/22 10:12:28;;;;;;;8.40;5.65;;;;;;;23.25;82.22;95972.77;1676327;85;20950;-80
2021/06/22 10:14:57;;;;;;;7.30;4.42;;;;;;;23.29;80.52;95973.30;1692314;84;20999;-80
2021/06/22 10:17:25;;;;;;;9.20;5.12;;;;;;;23.35;80.54;95984.66;1684428;85;20906;-80
2021/06/22 10:19:53;;;;;;;6.40;4.72;;;;;;;23.54;81.12;95995.44;1692107;84;20945;-80
2021/06/22 10:22:23;;;;;;;7.80;5.25;;;;;;;23.71;80.02;95997.23;1662965;86;20977;-80
2021/06/22 10:24:49;;;;;;;7.05;5.22;;;;;;;23.96;80.52;96000.28;1646606;86;21216;-80
2021/06/22 10:27:18;;;;;;;12.45;6.67;;;;;;;24.10;79.44;96031.78;1681433;85;21242;-80
2021/06/22 10:29:46;;;;;;;9.60;7.22;;;;;;;24.24;79.60;96032.74;1692077;83;21011;-80
2021/06/22 10:32:13;;;;;;;8.35;5.75;;;;;;;24.41;79.84;96041.67;1662453;86;21295;-80
2021/06/22 10:34:46;;;;;;;11.12;7.33;;;;;;;24.41;77.06;96047.52;1662925;86;21013;-80
2021/06/22 10:37:32;;;;;;;10.45;6.12;;;;;;;24.52;77.72;96051.66;1691955;85;20990;-80
2021/06/22 10:40:28;;;;;;;9.55;6.53;;;;;;;24.65;78.94;96051.56;1635763;85;20938;-80
2021/06/22 10:42:54;;;;;;;7.58;6.75;;;;;;;24.91;78.25;96042.30;1635126;86;21021;-80
2021/06/22 10:45:19;;;;;;;11.73;7.95;;;;;;;24.96;75.20;96042.24;1657462;86;20976;-80
2021/06/22 10:47:47;;;;;;;8.40;7.50;;;;;;;24.98;77.52;96042.75;1674025;83;20969;-80
2021/06/22 10:50:24;;;;;;;11.88;7.55;;;;;;;25.10;77.15;96035.76;1692307;84;21000;-81
2021/06/22 10:53:03;;;;;;;12.55;7.95;;;;;;;25.13;77.08;96043.16;1684367;85;20944;-79
2021/06/22 10:55:40;;;;;;;9.53;8.00;;;;;;;25.29;77.14;96049.11;1692219;85;20983;-80
2021/06/22 10:58:08;;;;;;;11.40;8.78;;;;;;;25.39;76.30;96043.69;1683413;85;20929;-80
2021/06/22 11:00:43;;;;;;;9.45;7.70;;;;;;;25.46;76.53;96035.35;1692326;84;21003;-80
2021/06/22 11:03:22;;;;;;;9.53;7.22;;;;;;;25.45;75.77;96027.91;1684563;85;21044;-80
2021/06/22 11:05:48;;;;;;;10.23;7.12;;;;;;;25.38;75.36;96023.45;1684113;85;20956;-79
2021/06/22 11:08:19;;;;;;;9.38;7.30;;;;;;;25.23;75.79;96034.30;1692432;85;20965;-80
2021/06/22 11:11:00;;;;;;;10.95;7.65;;;;;;;25.16;76.10;96028.52;1681934;85;20928;-80
2021/06/22 11:13:51;;;;;;;12.83;8.47;;;;;;;25.07;75.59;96029.14;1692650;84;20934;-80
2021/06/22 11:16:22;;;;;;;8.05;6.80;;;;;;;25.14;76.43;96030.92;1684109;85;20940;-80
2021/06/22 11:18:57;;;;;;;11.15;8.10;;;;;;;25.25;76.86;96028.95;1691277;84;21277;-80
2021/06/22 11:21:37;;;;;;;9.35;7.45;;;;;;;25.32;75.20;96019.29;1683958;85;20999;-80
2021/06/22 11:24:22;;;;;;;10.68;7.70;;;;;;;25.51;75.81;96015.33;1684244;84;20949;-80
2021/06/22 11:26:58;;;;;;;8.90;7.10;;;;;;;25.76;75.94;96016.38;1676343;85;21347;-80
2021/06/22 11:29:42;;;;;;;9.45;7.53;;;;;;;25.76;75.94;96016.38;1647426;86;21017;-80
2021/06/22 11:32:08;;;;;;;9.73;7.17;;;;;;;25.82;73.57;96017.88;1672830;85;21365;-80
2021/06/22 11:34:52;;;;;;;11.10;8.43;;;;;;;25.80;72.22;96017.92;1673649;85;21090;-80